Huvudsida
METAR-TAF:

METAR-TAF

Flygplatser :

Longyearbyen, Norge

Svalbards flygplats. Longyear

latitud: 78-15N, longitud: 015-28E, höjd: 2 m

Aktuellt väderrapport

Denna rapport gjordes för 33 minuter sedan, klockan 10:20 UTC
Vind 27 kt från ost/sydost
Temperatur -1°C
Fuktighet 80%
Tryck 1005 hPa
Sikt 10 km eller mer
Få moln på en höjd av 2500 ft
Brutna moln på en höjd av 3500 ft
lätt snö, lågt snödrev

METAR: ENSB 171020Z 11027KT 9999 -SN DRSN FEW025 BKN035 M01/M04 Q1005 NOSIG RMK WIND 1400FT 10035G49KT

Tid: 11:53 (10:53 UTC)

Väderprognos

Prognos gäller från 17 kl. 10 UTC till 18 kl. 06 UTC
Vind 18 kt från ost
Sikt 10 km eller mer
Få moln på en höjd av 1500 ft
Spridda moln på en höjd av 3000 ft
lågt snödrev
Temporärt
från 17 kl. 10 UTC till 18 kl. 06 UTC
Vind 30 kt från ost i byarna ända upp till 40 kt

TAF: ENSB 1710/1806 10018KT 9999 DRSN FEW015 SCT030 TEMPO 1710/1806 10030G40KT

Aktuella väderrapporter och prognoser från 4000 flygplatser (METAR- och TAF-rapporter).

De tillgängliga stationerna syns som gula och röda prickar på kartan.

För musen över prickarna för att se namnen på stationerna.

Klicka sedan för att få väderrapporter och prognoser.

För att ändra kartan: Klicka på de gröna knapparna med ett svart kors på för att zooma in; den gröna knappen med ett streck på för att zooma ut; eller på de gröna pilarna för angränsande kartor.


METAR-TAF: